sensor_id;sensor_type;location;lat;lon;timestamp;P1;durP1;ratioP1;P2;durP2;ratioP2
35084;SDS011;21267;51.032;6.998;2023-12-20T00:01:20;20.50;;;15.53;;
35084;SDS011;21267;51.032;6.998;2023-12-20T00:03:48;22.20;;;16.63;;
35084;SDS011;21267;51.032;6.998;2023-12-20T00:06:15;19.60;;;13.93;;
35084;SDS011;21267;51.032;6.998;2023-12-20T00:08:42;21.17;;;13.77;;
35084;SDS011;21267;51.032;6.998;2023-12-20T00:13:37;20.00;;;13.87;;
35084;SDS011;21267;51.032;6.998;2023-12-20T00:16:04;26.07;;;18.93;;
35084;SDS011;21267;51.032;6.998;2023-12-20T00:18:31;19.55;;;12.95;;
35084;SDS011;21267;51.032;6.998;2023-12-20T00:20:58;24.05;;;15.15;;
35084;SDS011;21267;51.032;6.998;2023-12-20T00:23:25;22.17;;;13.73;;
35084;SDS011;21267;51.032;6.998;2023-12-20T00:25:52;15.55;;;9.75;;
35084;SDS011;21267;51.032;6.998;2023-12-20T00:28:19;23.33;;;16.27;;
35084;SDS011;21267;51.032;6.998;2023-12-20T00:30:46;22.93;;;15.90;;
35084;SDS011;21267;51.032;6.998;2023-12-20T00:33:12;14.52;;;10.07;;
35084;SDS011;21267;51.032;6.998;2023-12-20T00:35:39;14.38;;;9.60;;
35084;SDS011;21267;51.032;6.998;2023-12-20T00:38:06;12.87;;;8.43;;
35084;SDS011;21267;51.032;6.998;2023-12-20T00:40:35;12.48;;;9.38;;
35084;SDS011;21267;51.032;6.998;2023-12-20T00:43:02;16.25;;;8.57;;
35084;SDS011;21267;51.032;6.998;2023-12-20T00:45:29;14.37;;;8.87;;
35084;SDS011;21267;51.032;6.998;2023-12-20T00:47:55;8.35;;;6.47;;
35084;SDS011;21267;51.032;6.998;2023-12-20T00:50:22;11.40;;;6.97;;
35084;SDS011;21267;51.032;6.998;2023-12-20T00:52:53;10.75;;;6.85;;
35084;SDS011;21267;51.032;6.998;2023-12-20T00:55:21;9.05;;;6.07;;
35084;SDS011;21267;51.032;6.998;2023-12-20T01:01:38;13.05;;;6.13;;
35084;SDS011;21267;51.032;6.998;2023-12-20T01:04:05;12.80;;;6.30;;
35084;SDS011;21267;51.032;6.998;2023-12-20T01:06:33;11.80;;;6.47;;
35084;SDS011;21267;51.032;6.998;2023-12-20T01:08:59;13.15;;;7.50;;
35084;SDS011;21267;51.032;6.998;2023-12-20T01:11:26;15.25;;;8.55;;
35084;SDS011;21267;51.032;6.998;2023-12-20T01:13:53;18.30;;;10.27;;
35084;SDS011;21267;51.032;6.998;2023-12-20T01:16:19;13.90;;;9.10;;
35084;SDS011;21267;51.032;6.998;2023-12-20T01:18:47;18.67;;;9.60;;
35084;SDS011;21267;51.032;6.998;2023-12-20T01:21:14;14.20;;;8.88;;
35084;SDS011;21267;51.032;6.998;2023-12-20T01:23:40;18.95;;;11.90;;
35084;SDS011;21267;51.032;6.998;2023-12-20T01:26:07;15.90;;;11.63;;
35084;SDS011;21267;51.032;6.998;2023-12-20T01:28:34;20.58;;;11.07;;
35084;SDS011;21267;51.032;6.998;2023-12-20T01:31:01;17.75;;;9.05;;
35084;SDS011;21267;51.032;6.998;2023-12-20T01:33:28;16.40;;;8.57;;
35084;SDS011;21267;51.032;6.998;2023-12-20T01:35:54;15.45;;;9.48;;
35084;SDS011;21267;51.032;6.998;2023-12-20T01:38:21;22.73;;;11.70;;
35084;SDS011;21267;51.032;6.998;2023-12-20T01:40:48;18.95;;;9.93;;
35084;SDS011;21267;51.032;6.998;2023-12-20T01:43:15;23.52;;;12.20;;
35084;SDS011;21267;51.032;6.998;2023-12-20T01:45:42;18.33;;;11.93;;
35084;SDS011;21267;51.032;6.998;2023-12-20T01:48:08;18.13;;;9.65;;
35084;SDS011;21267;51.032;6.998;2023-12-20T01:50:37;17.80;;;8.57;;
35084;SDS011;21267;51.032;6.998;2023-12-20T01:53:05;19.80;;;12.15;;
35084;SDS011;21267;51.032;6.998;2023-12-20T01:55:35;22.25;;;12.95;;
35084;SDS011;21267;51.032;6.998;2023-12-20T01:58:05;16.73;;;9.27;;
35084;SDS011;21267;51.032;6.998;2023-12-20T02:00:32;15.80;;;9.70;;
35084;SDS011;21267;51.032;6.998;2023-12-20T02:03:03;18.88;;;9.93;;
35084;SDS011;21267;51.032;6.998;2023-12-20T02:05:31;19.10;;;12.98;;
35084;SDS011;21267;51.032;6.998;2023-12-20T02:07:58;18.55;;;9.55;;
35084;SDS011;21267;51.032;6.998;2023-12-20T02:10:25;7.40;;;4.90;;
35084;SDS011;21267;51.032;6.998;2023-12-20T02:12:53;12.15;;;6.38;;
35084;SDS011;21267;51.032;6.998;2023-12-20T02:15:20;11.17;;;7.27;;
35084;SDS011;21267;51.032;6.998;2023-12-20T02:17:47;18.42;;;7.88;;
35084;SDS011;21267;51.032;6.998;2023-12-20T02:20:15;13.40;;;6.93;;
35084;SDS011;21267;51.032;6.998;2023-12-20T02:22:42;13.93;;;8.93;;
35084;SDS011;21267;51.032;6.998;2023-12-20T02:25:09;5.07;;;2.97;;
35084;SDS011;21267;51.032;6.998;2023-12-20T02:27:35;8.23;;;4.20;;
35084;SDS011;21267;51.032;6.998;2023-12-20T02:30:03;11.27;;;6.20;;
35084;SDS011;21267;51.032;6.998;2023-12-20T02:32:30;10.50;;;5.15;;
35084;SDS011;21267;51.032;6.998;2023-12-20T02:34:57;14.63;;;7.50;;
35084;SDS011;21267;51.032;6.998;2023-12-20T02:37:24;10.43;;;3.80;;
35084;SDS011;21267;51.032;6.998;2023-12-20T02:39:51;14.73;;;6.43;;
35084;SDS011;21267;51.032;6.998;2023-12-20T02:42:18;10.85;;;5.00;;
35084;SDS011;21267;51.032;6.998;2023-12-20T02:44:45;12.45;;;6.13;;
35084;SDS011;21267;51.032;6.998;2023-12-20T02:47:11;9.88;;;5.65;;
35084;SDS011;21267;51.032;6.998;2023-12-20T02:49:38;10.15;;;5.15;;
35084;SDS011;21267;51.032;6.998;2023-12-20T02:52:05;13.00;;;4.05;;
35084;SDS011;21267;51.032;6.998;2023-12-20T02:54:32;10.73;;;4.77;;
35084;SDS011;21267;51.032;6.998;2023-12-20T02:56:59;17.48;;;5.97;;
35084;SDS011;21267;51.032;6.998;2023-12-20T02:59:26;15.30;;;6.43;;
35084;SDS011;21267;51.032;6.998;2023-12-20T03:01:53;11.43;;;4.67;;
35084;SDS011;21267;51.032;6.998;2023-12-20T03:04:20;13.40;;;4.43;;
35084;SDS011;21267;51.032;6.998;2023-12-20T03:06:47;10.77;;;4.20;;
35084;SDS011;21267;51.032;6.998;2023-12-20T03:09:14;13.73;;;3.25;;
35084;SDS011;21267;51.032;6.998;2023-12-20T03:11:41;11.27;;;3.40;;
35084;SDS011;21267;51.032;6.998;2023-12-20T03:14:08;16.42;;;3.08;;
35084;SDS011;21267;51.032;6.998;2023-12-20T03:16:34;13.27;;;3.00;;
35084;SDS011;21267;51.032;6.998;2023-12-20T03:21:29;9.30;;;3.17;;
35084;SDS011;21267;51.032;6.998;2023-12-20T03:23:56;9.02;;;2.78;;
35084;SDS011;21267;51.032;6.998;2023-12-20T03:26:23;10.43;;;2.90;;
35084;SDS011;21267;51.032;6.998;2023-12-20T03:28:50;12.70;;;2.47;;
35084;SDS011;21267;51.032;6.998;2023-12-20T03:31:16;11.65;;;2.63;;
35084;SDS011;21267;51.032;6.998;2023-12-20T03:33:43;15.02;;;2.85;;
35084;SDS011;21267;51.032;6.998;2023-12-20T03:36:10;14.60;;;3.30;;
35084;SDS011;21267;51.032;6.998;2023-12-20T03:38:37;12.35;;;4.63;;
35084;SDS011;21267;51.032;6.998;2023-12-20T03:41:04;17.30;;;2.63;;
35084;SDS011;21267;51.032;6.998;2023-12-20T03:43:31;5.80;;;2.20;;
35084;SDS011;21267;51.032;6.998;2023-12-20T03:45:58;12.60;;;2.17;;
35084;SDS011;21267;51.032;6.998;2023-12-20T03:50:53;15.57;;;3.28;;
35084;SDS011;21267;51.032;6.998;2023-12-20T03:53:20;11.93;;;2.47;;
35084;SDS011;21267;51.032;6.998;2023-12-20T03:55:47;12.82;;;2.35;;
35084;SDS011;21267;51.032;6.998;2023-12-20T03:58:14;12.48;;;2.85;;
35084;SDS011;21267;51.032;6.998;2023-12-20T04:00:40;7.68;;;1.88;;
35084;SDS011;21267;51.032;6.998;2023-12-20T04:03:08;8.18;;;3.05;;
35084;SDS011;21267;51.032;6.998;2023-12-20T04:05:34;9.68;;;3.05;;
35084;SDS011;21267;51.032;6.998;2023-12-20T04:08:01;16.52;;;3.35;;
35084;SDS011;21267;51.032;6.998;2023-12-20T04:10:30;13.20;;;3.25;;
35084;SDS011;21267;51.032;6.998;2023-12-20T04:12:57;19.45;;;4.45;;
35084;SDS011;21267;51.032;6.998;2023-12-20T04:15:24;11.90;;;2.73;;
35084;SDS011;21267;51.032;6.998;2023-12-20T04:17:51;7.35;;;2.08;;
35084;SDS011;21267;51.032;6.998;2023-12-20T04:20:18;13.50;;;3.78;;
35084;SDS011;21267;51.032;6.998;2023-12-20T04:22:45;12.10;;;3.33;;
35084;SDS011;21267;51.032;6.998;2023-12-20T04:25:12;6.53;;;2.20;;
35084;SDS011;21267;51.032;6.998;2023-12-20T04:27:39;14.27;;;2.93;;
35084;SDS011;21267;51.032;6.998;2023-12-20T04:30:06;6.33;;;1.83;;
35084;SDS011;21267;51.032;6.998;2023-12-20T04:32:34;16.40;;;3.45;;
35084;SDS011;21267;51.032;6.998;2023-12-20T04:35:00;18.45;;;3.58;;
35084;SDS011;21267;51.032;6.998;2023-12-20T04:37:27;14.63;;;3.42;;
35084;SDS011;21267;51.032;6.998;2023-12-20T04:39:54;12.15;;;3.60;;
35084;SDS011;21267;51.032;6.998;2023-12-20T04:42:21;10.43;;;3.42;;
35084;SDS011;21267;51.032;6.998;2023-12-20T04:44:48;10.68;;;3.70;;
35084;SDS011;21267;51.032;6.998;2023-12-20T04:47:15;11.43;;;3.55;;
35084;SDS011;21267;51.032;6.998;2023-12-20T04:49:42;11.98;;;3.33;;
35084;SDS011;21267;51.032;6.998;2023-12-20T04:52:08;16.60;;;4.28;;
35084;SDS011;21267;51.032;6.998;2023-12-20T04:54:35;11.48;;;4.10;;
35084;SDS011;21267;51.032;6.998;2023-12-20T04:57:02;6.83;;;2.63;;
35084;SDS011;21267;51.032;6.998;2023-12-20T04:59:30;13.88;;;4.15;;
35084;SDS011;21267;51.032;6.998;2023-12-20T05:01:56;13.48;;;4.10;;
35084;SDS011;21267;51.032;6.998;2023-12-20T05:04:24;7.22;;;2.42;;
35084;SDS011;21267;51.032;6.998;2023-12-20T05:06:51;9.23;;;3.43;;
35084;SDS011;21267;51.032;6.998;2023-12-20T05:09:18;11.70;;;3.87;;
35084;SDS011;21267;51.032;6.998;2023-12-20T05:11:45;6.32;;;2.78;;
35084;SDS011;21267;51.032;6.998;2023-12-20T05:14:12;9.90;;;3.92;;
35084;SDS011;21267;51.032;6.998;2023-12-20T05:16:39;12.97;;;4.27;;
35084;SDS011;21267;51.032;6.998;2023-12-20T05:19:06;11.10;;;3.90;;
35084;SDS011;21267;51.032;6.998;2023-12-20T05:21:33;13.68;;;3.90;;
35084;SDS011;21267;51.032;6.998;2023-12-20T05:24:00;8.90;;;4.18;;
35084;SDS011;21267;51.032;6.998;2023-12-20T05:26:27;14.20;;;3.92;;
35084;SDS011;21267;51.032;6.998;2023-12-20T05:28:55;9.50;;;3.20;;
35084;SDS011;21267;51.032;6.998;2023-12-20T05:31:22;8.18;;;3.10;;
35084;SDS011;21267;51.032;6.998;2023-12-20T05:33:50;10.55;;;3.72;;
35084;SDS011;21267;51.032;6.998;2023-12-20T05:36:18;11.05;;;4.05;;
35084;SDS011;21267;51.032;6.998;2023-12-20T05:38:45;6.85;;;1.95;;
35084;SDS011;21267;51.032;6.998;2023-12-20T05:41:12;11.50;;;3.73;;
35084;SDS011;21267;51.032;6.998;2023-12-20T05:43:39;11.45;;;4.25;;
35084;SDS011;21267;51.032;6.998;2023-12-20T05:46:06;8.40;;;3.45;;
35084;SDS011;21267;51.032;6.998;2023-12-20T05:48:33;11.13;;;3.28;;
35084;SDS011;21267;51.032;6.998;2023-12-20T05:51:00;14.18;;;3.50;;
35084;SDS011;21267;51.032;6.998;2023-12-20T05:53:27;7.93;;;2.50;;
35084;SDS011;21267;51.032;6.998;2023-12-20T05:55:54;18.98;;;5.15;;
35084;SDS011;21267;51.032;6.998;2023-12-20T05:58:21;12.05;;;4.05;;
35084;SDS011;21267;51.032;6.998;2023-12-20T06:00:52;17.77;;;4.72;;
35084;SDS011;21267;51.032;6.998;2023-12-20T06:03:20;11.93;;;2.40;;
35084;SDS011;21267;51.032;6.998;2023-12-20T06:05:47;6.07;;;2.72;;
35084;SDS011;21267;51.032;6.998;2023-12-20T06:08:14;22.75;;;3.88;;
35084;SDS011;21267;51.032;6.998;2023-12-20T06:10:41;4.97;;;1.60;;
35084;SDS011;21267;51.032;6.998;2023-12-20T06:13:08;15.43;;;3.17;;
35084;SDS011;21267;51.032;6.998;2023-12-20T06:15:35;13.50;;;2.80;;
35084;SDS011;21267;51.032;6.998;2023-12-20T06:18:02;8.77;;;3.87;;
35084;SDS011;21267;51.032;6.998;2023-12-20T06:20:30;14.93;;;4.45;;
35084;SDS011;21267;51.032;6.998;2023-12-20T06:22:56;22.10;;;9.25;;
35084;SDS011;21267;51.032;6.998;2023-12-20T06:25:24;9.98;;;3.10;;
35084;SDS011;21267;51.032;6.998;2023-12-20T06:27:51;13.88;;;3.60;;
35084;SDS011;21267;51.032;6.998;2023-12-20T06:30:19;14.10;;;3.47;;
35084;SDS011;21267;51.032;6.998;2023-12-20T06:32:46;12.98;;;3.50;;
35084;SDS011;21267;51.032;6.998;2023-12-20T06:35:14;13.40;;;4.32;;
35084;SDS011;21267;51.032;6.998;2023-12-20T06:37:41;18.27;;;4.70;;
35084;SDS011;21267;51.032;6.998;2023-12-20T06:40:09;13.23;;;3.42;;
35084;SDS011;21267;51.032;6.998;2023-12-20T06:42:43;4.05;;;1.88;;
35084;SDS011;21267;51.032;6.998;2023-12-20T06:45:24;12.30;;;3.60;;
35084;SDS011;21267;51.032;6.998;2023-12-20T06:47:51;12.37;;;3.10;;
35084;SDS011;21267;51.032;6.998;2023-12-20T06:50:19;8.32;;;2.13;;
35084;SDS011;21267;51.032;6.998;2023-12-20T06:52:45;9.65;;;3.40;;
35084;SDS011;21267;51.032;6.998;2023-12-20T06:55:12;11.85;;;3.63;;
35084;SDS011;21267;51.032;6.998;2023-12-20T06:57:39;20.20;;;4.73;;
35084;SDS011;21267;51.032;6.998;2023-12-20T07:00:07;9.20;;;2.50;;
35084;SDS011;21267;51.032;6.998;2023-12-20T07:05:02;10.57;;;4.28;;
35084;SDS011;21267;51.032;6.998;2023-12-20T07:07:29;10.20;;;2.43;;
35084;SDS011;21267;51.032;6.998;2023-12-20T07:09:56;6.32;;;1.88;;
35084;SDS011;21267;51.032;6.998;2023-12-20T07:12:23;12.30;;;2.85;;
35084;SDS011;21267;51.032;6.998;2023-12-20T07:14:49;6.20;;;1.85;;
35084;SDS011;21267;51.032;6.998;2023-12-20T07:17:16;10.18;;;3.13;;
35084;SDS011;21267;51.032;6.998;2023-12-20T07:19:43;14.13;;;3.63;;
35084;SDS011;21267;51.032;6.998;2023-12-20T07:22:10;16.45;;;4.03;;
35084;SDS011;21267;51.032;6.998;2023-12-20T07:24:37;12.20;;;2.45;;
35084;SDS011;21267;51.032;6.998;2023-12-20T07:27:04;14.75;;;3.50;;
35084;SDS011;21267;51.032;6.998;2023-12-20T07:33:38;14.63;;;4.07;;
35084;SDS011;21267;51.032;6.998;2023-12-20T07:36:19;16.02;;;3.35;;
35084;SDS011;21267;51.032;6.998;2023-12-20T07:39:00;11.32;;;3.05;;
35084;SDS011;21267;51.032;6.998;2023-12-20T07:41:26;14.73;;;4.07;;
35084;SDS011;21267;51.032;6.998;2023-12-20T07:44:07;15.70;;;3.30;;
35084;SDS011;21267;51.032;6.998;2023-12-20T07:46:34;12.85;;;3.78;;
35084;SDS011;21267;51.032;6.998;2023-12-20T07:49:14;16.27;;;4.18;;
35084;SDS011;21267;51.032;6.998;2023-12-20T07:51:41;17.48;;;4.65;;
35084;SDS011;21267;51.032;6.998;2023-12-20T07:54:23;9.55;;;2.63;;
35084;SDS011;21267;51.032;6.998;2023-12-20T07:56:49;12.98;;;5.05;;
35084;SDS011;21267;51.032;6.998;2023-12-20T07:59:16;20.07;;;4.43;;
35084;SDS011;21267;51.032;6.998;2023-12-20T08:01:58;13.38;;;4.10;;
35084;SDS011;21267;51.032;6.998;2023-12-20T08:04:25;8.93;;;4.72;;
35084;SDS011;21267;51.032;6.998;2023-12-20T08:07:05;11.85;;;3.17;;
35084;SDS011;21267;51.032;6.998;2023-12-20T08:09:35;8.60;;;3.63;;
35084;SDS011;21267;51.032;6.998;2023-12-20T08:12:16;14.68;;;3.90;;
35084;SDS011;21267;51.032;6.998;2023-12-20T08:14:44;14.63;;;5.07;;
35084;SDS011;21267;51.032;6.998;2023-12-20T08:17:24;8.57;;;3.20;;
35084;SDS011;21267;51.032;6.998;2023-12-20T08:19:51;17.83;;;3.97;;
35084;SDS011;21267;51.032;6.998;2023-12-20T08:22:35;10.18;;;3.50;;
35084;SDS011;21267;51.032;6.998;2023-12-20T08:25:02;8.93;;;2.78;;
35084;SDS011;21267;51.032;6.998;2023-12-20T08:27:42;7.43;;;2.15;;
35084;SDS011;21267;51.032;6.998;2023-12-20T08:30:10;11.00;;;3.80;;
35084;SDS011;21267;51.032;6.998;2023-12-20T08:32:53;16.00;;;3.33;;
35084;SDS011;21267;51.032;6.998;2023-12-20T08:35:20;18.83;;;4.88;;
35084;SDS011;21267;51.032;6.998;2023-12-20T08:37:47;8.80;;;3.43;;
35084;SDS011;21267;51.032;6.998;2023-12-20T08:40:28;8.77;;;2.83;;
35084;SDS011;21267;51.032;6.998;2023-12-20T08:42:55;15.43;;;3.75;;
35084;SDS011;21267;51.032;6.998;2023-12-20T08:45:22;8.52;;;3.13;;
35084;SDS011;21267;51.032;6.998;2023-12-20T08:47:49;10.93;;;3.08;;
35084;SDS011;21267;51.032;6.998;2023-12-20T08:50:29;10.60;;;3.05;;
35084;SDS011;21267;51.032;6.998;2023-12-20T08:52:56;5.40;;;2.22;;
35084;SDS011;21267;51.032;6.998;2023-12-20T08:55:37;11.43;;;2.55;;
35084;SDS011;21267;51.032;6.998;2023-12-20T08:58:04;11.27;;;3.63;;
35084;SDS011;21267;51.032;6.998;2023-12-20T09:00:33;7.72;;;2.08;;
35084;SDS011;21267;51.032;6.998;2023-12-20T09:03:01;13.23;;;2.67;;
35084;SDS011;21267;51.032;6.998;2023-12-20T09:05:28;9.40;;;2.55;;
35084;SDS011;21267;51.032;6.998;2023-12-20T09:07:56;14.07;;;3.78;;
35084;SDS011;21267;51.032;6.998;2023-12-20T09:10:23;13.50;;;3.67;;
35084;SDS011;21267;51.032;6.998;2023-12-20T09:12:58;9.52;;;3.85;;
35084;SDS011;21267;51.032;6.998;2023-12-20T09:15:25;13.82;;;2.53;;
35084;SDS011;21267;51.032;6.998;2023-12-20T09:17:53;9.82;;;2.88;;
35084;SDS011;21267;51.032;6.998;2023-12-20T09:20:20;8.63;;;3.13;;
35084;SDS011;21267;51.032;6.998;2023-12-20T09:22:47;5.10;;;1.47;;
35084;SDS011;21267;51.032;6.998;2023-12-20T09:25:14;9.50;;;1.83;;
35084;SDS011;21267;51.032;6.998;2023-12-20T09:27:45;10.65;;;2.95;;
35084;SDS011;21267;51.032;6.998;2023-12-20T09:30:12;10.60;;;2.28;;
35084;SDS011;21267;51.032;6.998;2023-12-20T09:32:50;16.45;;;2.85;;
35084;SDS011;21267;51.032;6.998;2023-12-20T09:35:17;8.73;;;2.67;;
35084;SDS011;21267;51.032;6.998;2023-12-20T09:37:59;13.50;;;4.15;;
35084;SDS011;21267;51.032;6.998;2023-12-20T09:40:26;9.68;;;3.08;;
35084;SDS011;21267;51.032;6.998;2023-12-20T09:43:04;9.57;;;2.78;;
35084;SDS011;21267;51.032;6.998;2023-12-20T09:45:37;11.77;;;3.50;;
35084;SDS011;21267;51.032;6.998;2023-12-20T09:48:11;7.68;;;2.13;;
35084;SDS011;21267;51.032;6.998;2023-12-20T09:50:38;5.50;;;2.17;;
35084;SDS011;21267;51.032;6.998;2023-12-20T09:53:05;7.00;;;2.40;;
35084;SDS011;21267;51.032;6.998;2023-12-20T09:55:37;8.20;;;2.50;;
35084;SDS011;21267;51.032;6.998;2023-12-20T09:58:04;10.93;;;2.47;;
35084;SDS011;21267;51.032;6.998;2023-12-20T10:00:35;13.48;;;2.70;;
35084;SDS011;21267;51.032;6.998;2023-12-20T10:03:05;14.05;;;3.22;;
35084;SDS011;21267;51.032;6.998;2023-12-20T10:05:33;13.35;;;3.03;;
35084;SDS011;21267;51.032;6.998;2023-12-20T10:10:28;9.90;;;3.03;;
35084;SDS011;21267;51.032;6.998;2023-12-20T10:13:10;9.60;;;4.07;;
35084;SDS011;21267;51.032;6.998;2023-12-20T10:15:39;8.63;;;1.63;;
35084;SDS011;21267;51.032;6.998;2023-12-20T10:18:08;13.95;;;3.22;;
35084;SDS011;21267;51.032;6.998;2023-12-20T10:20:37;7.75;;;2.00;;
35084;SDS011;21267;51.032;6.998;2023-12-20T10:23:06;9.68;;;2.45;;
35084;SDS011;21267;51.032;6.998;2023-12-20T10:25:35;7.90;;;1.85;;
35084;SDS011;21267;51.032;6.998;2023-12-20T10:28:16;8.13;;;2.67;;
35084;SDS011;21267;51.032;6.998;2023-12-20T10:30:49;8.93;;;2.17;;
35084;SDS011;21267;51.032;6.998;2023-12-20T10:33:27;11.48;;;2.22;;
35084;SDS011;21267;51.032;6.998;2023-12-20T10:35:55;10.90;;;2.25;;
35084;SDS011;21267;51.032;6.998;2023-12-20T10:38:36;11.15;;;2.75;;
35084;SDS011;21267;51.032;6.998;2023-12-20T10:41:06;11.93;;;1.77;;
35084;SDS011;21267;51.032;6.998;2023-12-20T18:58:38;8.30;;;3.60;;
35084;SDS011;21267;51.032;6.998;2023-12-20T19:01:08;13.63;;;3.47;;
35084;SDS011;21267;51.032;6.998;2023-12-20T19:03:37;6.03;;;2.88;;
35084;SDS011;21267;51.032;6.998;2023-12-20T19:06:17;6.57;;;2.05;;
35084;SDS011;21267;51.032;6.998;2023-12-20T19:08:45;11.20;;;3.10;;
35084;SDS011;21267;51.032;6.998;2023-12-20T19:11:29;10.48;;;3.45;;
35084;SDS011;21267;51.032;6.998;2023-12-20T19:14:01;12.20;;;3.88;;
35084;SDS011;21267;51.032;6.998;2023-12-20T19:16:33;9.48;;;2.85;;
35084;SDS011;21267;51.032;6.998;2023-12-20T19:19:00;8.43;;;2.55;;
35084;SDS011;21267;51.032;6.998;2023-12-20T19:21:38;9.63;;;4.25;;
35084;SDS011;21267;51.032;6.998;2023-12-20T19:24:09;8.35;;;3.40;;
35084;SDS011;21267;51.032;6.998;2023-12-20T19:26:42;6.18;;;2.72;;
35084;SDS011;21267;51.032;6.998;2023-12-20T19:29:14;4.25;;;2.85;;
35084;SDS011;21267;51.032;6.998;2023-12-20T19:31:58;6.22;;;3.60;;
35084;SDS011;21267;51.032;6.998;2023-12-20T19:34:33;11.13;;;4.00;;
35084;SDS011;21267;51.032;6.998;2023-12-20T19:37:03;9.80;;;3.85;;
35084;SDS011;21267;51.032;6.998;2023-12-20T19:39:33;11.80;;;2.83;;
35084;SDS011;21267;51.032;6.998;2023-12-20T19:42:13;10.50;;;3.95;;
35084;SDS011;21267;51.032;6.998;2023-12-20T19:44:40;8.00;;;2.60;;
35084;SDS011;21267;51.032;6.998;2023-12-20T19:47:21;10.63;;;4.47;;
35084;SDS011;21267;51.032;6.998;2023-12-20T19:49:54;9.90;;;3.00;;
35084;SDS011;21267;51.032;6.998;2023-12-20T19:52:22;7.93;;;3.40;;
35084;SDS011;21267;51.032;6.998;2023-12-20T19:55:05;6.65;;;3.10;;
35084;SDS011;21267;51.032;6.998;2023-12-20T19:57:32;8.37;;;3.60;;
35084;SDS011;21267;51.032;6.998;2023-12-20T19:59:59;3.47;;;1.97;;
35084;SDS011;21267;51.032;6.998;2023-12-20T20:02:26;7.13;;;2.23;;
35084;SDS011;21267;51.032;6.998;2023-12-20T20:04:53;7.03;;;3.33;;
35084;SDS011;21267;51.032;6.998;2023-12-20T20:07:20;7.80;;;3.10;;
35084;SDS011;21267;51.032;6.998;2023-12-20T20:09:49;1.35;;;1.10;;
35084;SDS011;21267;51.032;6.998;2023-12-20T20:12:16;4.13;;;1.92;;
35084;SDS011;21267;51.032;6.998;2023-12-20T20:14:43;4.07;;;1.60;;
35084;SDS011;21267;51.032;6.998;2023-12-20T20:17:09;5.22;;;2.08;;
35084;SDS011;21267;51.032;6.998;2023-12-20T20:19:36;8.80;;;2.37;;
35084;SDS011;21267;51.032;6.998;2023-12-20T20:22:03;8.37;;;2.93;;
35084;SDS011;21267;51.032;6.998;2023-12-20T20:24:30;7.55;;;3.67;;
35084;SDS011;21267;51.032;6.998;2023-12-20T20:26:57;5.43;;;3.03;;
35084;SDS011;21267;51.032;6.998;2023-12-20T20:29:24;8.25;;;3.97;;
35084;SDS011;21267;51.032;6.998;2023-12-20T20:31:51;8.82;;;3.65;;
35084;SDS011;21267;51.032;6.998;2023-12-20T20:34:18;8.63;;;4.03;;
35084;SDS011;21267;51.032;6.998;2023-12-20T20:36:47;8.48;;;3.47;;
35084;SDS011;21267;51.032;6.998;2023-12-20T20:39:14;4.60;;;3.20;;
35084;SDS011;21267;51.032;6.998;2023-12-20T20:41:42;10.25;;;3.65;;
35084;SDS011;21267;51.032;6.998;2023-12-20T20:44:09;10.87;;;3.40;;
35084;SDS011;21267;51.032;6.998;2023-12-20T20:46:36;10.02;;;2.85;;
35084;SDS011;21267;51.032;6.998;2023-12-20T20:49:03;8.55;;;3.03;;
35084;SDS011;21267;51.032;6.998;2023-12-20T20:51:31;6.20;;;1.98;;
35084;SDS011;21267;51.032;6.998;2023-12-20T20:53:58;4.27;;;3.37;;
35084;SDS011;21267;51.032;6.998;2023-12-20T20:56:37;2.85;;;1.58;;
35084;SDS011;21267;51.032;6.998;2023-12-20T20:59:04;5.77;;;1.63;;
35084;SDS011;21267;51.032;6.998;2023-12-20T21:01:31;5.93;;;2.23;;
35084;SDS011;21267;51.032;6.998;2023-12-20T21:03:58;7.23;;;2.60;;
35084;SDS011;21267;51.032;6.998;2023-12-20T21:06:26;7.00;;;2.40;;
35084;SDS011;21267;51.032;6.998;2023-12-20T21:08:56;8.52;;;3.35;;
35084;SDS011;21267;51.032;6.998;2023-12-20T21:11:23;7.70;;;2.92;;
35084;SDS011;21267;51.032;6.998;2023-12-20T21:13:50;6.77;;;3.37;;
35084;SDS011;21267;51.032;6.998;2023-12-20T21:16:17;4.20;;;1.87;;
35084;SDS011;21267;51.032;6.998;2023-12-20T21:18:45;5.15;;;2.53;;
35084;SDS011;21267;51.032;6.998;2023-12-20T21:21:12;6.37;;;2.50;;
35084;SDS011;21267;51.032;6.998;2023-12-20T21:23:39;7.15;;;2.97;;
35084;SDS011;21267;51.032;6.998;2023-12-20T21:26:07;7.93;;;2.37;;
35084;SDS011;21267;51.032;6.998;2023-12-20T21:28:37;7.43;;;3.13;;
35084;SDS011;21267;51.032;6.998;2023-12-20T21:31:05;6.93;;;2.70;;
35084;SDS011;21267;51.032;6.998;2023-12-20T21:33:32;7.73;;;2.87;;
35084;SDS011;21267;51.032;6.998;2023-12-20T21:35:59;6.90;;;2.13;;
35084;SDS011;21267;51.032;6.998;2023-12-20T21:38:26;6.40;;;3.00;;
35084;SDS011;21267;51.032;6.998;2023-12-20T21:40:53;10.20;;;3.10;;
35084;SDS011;21267;51.032;6.998;2023-12-20T21:43:21;3.03;;;1.98;;
35084;SDS011;21267;51.032;6.998;2023-12-20T21:45:49;9.75;;;3.33;;
35084;SDS011;21267;51.032;6.998;2023-12-20T21:48:16;5.85;;;2.63;;
35084;SDS011;21267;51.032;6.998;2023-12-20T21:50:43;8.00;;;2.90;;
35084;SDS011;21267;51.032;6.998;2023-12-20T21:53:10;11.00;;;3.15;;
35084;SDS011;21267;51.032;6.998;2023-12-20T21:55:41;4.03;;;2.10;;
35084;SDS011;21267;51.032;6.998;2023-12-20T21:58:08;4.53;;;1.63;;
35084;SDS011;21267;51.032;6.998;2023-12-20T22:00:36;6.45;;;3.03;;
35084;SDS011;21267;51.032;6.998;2023-12-20T22:03:02;7.67;;;3.47;;
35084;SDS011;21267;51.032;6.998;2023-12-20T22:05:37;4.90;;;2.17;;
35084;SDS011;21267;51.032;6.998;2023-12-20T22:08:05;8.75;;;3.05;;
35084;SDS011;21267;51.032;6.998;2023-12-20T22:10:33;7.25;;;2.05;;
35084;SDS011;21267;51.032;6.998;2023-12-20T22:13:00;2.57;;;1.43;;
35084;SDS011;21267;51.032;6.998;2023-12-20T22:15:27;6.70;;;2.08;;
35084;SDS011;21267;51.032;6.998;2023-12-20T22:17:53;7.50;;;2.33;;
35084;SDS011;21267;51.032;6.998;2023-12-20T22:20:20;5.70;;;2.47;;
35084;SDS011;21267;51.032;6.998;2023-12-20T22:22:47;4.28;;;2.35;;
35084;SDS011;21267;51.032;6.998;2023-12-20T22:25:14;12.98;;;3.72;;
35084;SDS011;21267;51.032;6.998;2023-12-20T22:27:41;10.00;;;3.27;;
35084;SDS011;21267;51.032;6.998;2023-12-20T22:30:08;7.20;;;2.58;;
35084;SDS011;21267;51.032;6.998;2023-12-20T22:32:36;5.00;;;2.75;;
35084;SDS011;21267;51.032;6.998;2023-12-20T22:35:05;7.93;;;4.13;;
35084;SDS011;21267;51.032;6.998;2023-12-20T22:37:35;6.55;;;3.28;;
35084;SDS011;21267;51.032;6.998;2023-12-20T22:40:03;11.82;;;4.22;;
35084;SDS011;21267;51.032;6.998;2023-12-20T22:42:30;11.93;;;4.45;;
35084;SDS011;21267;51.032;6.998;2023-12-20T22:44:57;10.38;;;4.45;;
35084;SDS011;21267;51.032;6.998;2023-12-20T22:47:24;13.88;;;5.32;;
35084;SDS011;21267;51.032;6.998;2023-12-20T22:49:51;6.25;;;4.20;;
35084;SDS011;21267;51.032;6.998;2023-12-20T22:52:19;6.47;;;4.70;;
35084;SDS011;21267;51.032;6.998;2023-12-20T22:54:48;20.05;;;4.22;;
35084;SDS011;21267;51.032;6.998;2023-12-20T22:57:15;11.63;;;5.97;;
35084;SDS011;21267;51.032;6.998;2023-12-20T22:59:41;4.35;;;2.65;;
35084;SDS011;21267;51.032;6.998;2023-12-20T23:02:08;8.73;;;5.90;;
35084;SDS011;21267;51.032;6.998;2023-12-20T23:04:40;6.72;;;4.57;;
35084;SDS011;21267;51.032;6.998;2023-12-20T23:07:09;9.80;;;5.85;;
35084;SDS011;21267;51.032;6.998;2023-12-20T23:09:36;8.85;;;5.88;;
35084;SDS011;21267;51.032;6.998;2023-12-20T23:12:04;4.63;;;4.20;;
35084;SDS011;21267;51.032;6.998;2023-12-20T23:14:31;4.93;;;3.05;;
35084;SDS011;21267;51.032;6.998;2023-12-20T23:16:58;6.20;;;4.85;;
35084;SDS011;21267;51.032;6.998;2023-12-20T23:19:25;11.68;;;5.50;;
35084;SDS011;21267;51.032;6.998;2023-12-20T23:21:56;5.38;;;3.13;;